sensor_id;sensor_type;location;lat;lon;timestamp;pressure;altitude;pressure_sealevel;temperature;humidity
57234;BME280;43090;52.604;13.318;2023-09-07T00:01:26;101874.25;;;18.22;86.03
57234;BME280;43090;52.604;13.318;2023-09-07T00:03:52;101890.25;;;18.25;86.22
57234;BME280;43090;52.604;13.318;2023-09-07T00:06:19;101885.94;;;18.23;86.31
57234;BME280;43090;52.604;13.318;2023-09-07T00:08:45;101887.44;;;17.94;87.84
57234;BME280;43090;52.604;13.318;2023-09-07T00:11:12;101907.13;;;17.96;88.12
57234;BME280;43090;52.604;13.318;2023-09-07T00:13:39;101904.00;;;18.12;87.46
57234;BME280;43090;52.604;13.318;2023-09-07T00:16:05;101900.00;;;17.95;88.27
57234;BME280;43090;52.604;13.318;2023-09-07T00:18:32;101889.78;;;17.88;88.55
57234;BME280;43090;52.604;13.318;2023-09-07T00:21:00;101909.13;;;17.94;88.34
57234;BME280;43090;52.604;13.318;2023-09-07T00:23:27;101900.09;;;17.94;88.00
57234;BME280;43090;52.604;13.318;2023-09-07T00:25:53;101905.16;;;17.87;88.37
57234;BME280;43090;52.604;13.318;2023-09-07T00:28:20;101910.13;;;17.82;88.64
57234;BME280;43090;52.604;13.318;2023-09-07T00:30:49;101899.78;;;17.76;88.41
57234;BME280;43090;52.604;13.318;2023-09-07T00:33:16;101887.00;;;17.67;88.87
57234;BME280;43090;52.604;13.318;2023-09-07T00:35:42;101894.63;;;17.73;89.25
57234;BME280;43090;52.604;13.318;2023-09-07T00:38:09;101897.44;;;17.71;89.52
57234;BME280;43090;52.604;13.318;2023-09-07T00:40:37;101889.66;;;17.78;88.17
57234;BME280;43090;52.604;13.318;2023-09-07T00:43:04;101894.09;;;17.79;88.07
57234;BME280;43090;52.604;13.318;2023-09-07T00:45:31;101908.63;;;17.78;88.36
57234;BME280;43090;52.604;13.318;2023-09-07T00:47:57;101887.91;;;17.56;89.64
57234;BME280;43090;52.604;13.318;2023-09-07T00:50:24;101902.78;;;17.61;89.44
57234;BME280;43090;52.604;13.318;2023-09-07T00:52:51;101897.44;;;17.71;88.60
57234;BME280;43090;52.604;13.318;2023-09-07T00:55:18;101894.78;;;17.60;89.10
57234;BME280;43090;52.604;13.318;2023-09-07T00:57:44;101905.84;;;17.68;88.92
57234;BME280;43090;52.604;13.318;2023-09-07T01:00:11;101889.53;;;17.47;89.57
57234;BME280;43090;52.604;13.318;2023-09-07T01:02:38;101903.28;;;17.55;89.72
57234;BME280;43090;52.604;13.318;2023-09-07T01:05:05;101895.28;;;17.54;89.44
57234;BME280;43090;52.604;13.318;2023-09-07T01:07:40;101899.72;;;17.43;90.35
57234;BME280;43090;52.604;13.318;2023-09-07T01:10:09;101893.22;;;17.46;89.68
57234;BME280;43090;52.604;13.318;2023-09-07T01:12:36;101899.00;;;17.30;91.23
57234;BME280;43090;52.604;13.318;2023-09-07T01:15:02;101880.06;;;17.30;90.30
57234;BME280;43090;52.604;13.318;2023-09-07T01:17:32;101892.63;;;17.31;90.21
57234;BME280;43090;52.604;13.318;2023-09-07T01:20:03;101870.00;;;17.32;89.48
57234;BME280;43090;52.604;13.318;2023-09-07T01:22:33;101888.06;;;17.43;89.61
57234;BME280;43090;52.604;13.318;2023-09-07T01:25:00;101885.22;;;17.44;89.27
57234;BME280;43090;52.604;13.318;2023-09-07T01:27:28;101883.88;;;17.39;89.09
57234;BME280;43090;52.604;13.318;2023-09-07T01:29:54;101879.09;;;17.31;89.24
57234;BME280;43090;52.604;13.318;2023-09-07T01:32:22;101886.97;;;17.23;90.29
57234;BME280;43090;52.604;13.318;2023-09-07T01:34:49;101890.75;;;17.31;89.80
57234;BME280;43090;52.604;13.318;2023-09-07T01:37:15;101874.56;;;17.09;90.22
57234;BME280;43090;52.604;13.318;2023-09-07T01:39:42;101878.88;;;17.11;90.16
57234;BME280;43090;52.604;13.318;2023-09-07T01:42:08;101868.91;;;17.12;89.87
57234;BME280;43090;52.604;13.318;2023-09-07T01:44:35;101887.22;;;17.20;89.63
57234;BME280;43090;52.604;13.318;2023-09-07T01:47:02;101885.88;;;17.14;89.40
57234;BME280;43090;52.604;13.318;2023-09-07T01:49:29;101893.88;;;17.27;89.27
57234;BME280;43090;52.604;13.318;2023-09-07T01:51:56;101881.06;;;17.06;90.14
57234;BME280;43090;52.604;13.318;2023-09-07T01:54:22;101884.41;;;17.10;89.79
57234;BME280;43090;52.604;13.318;2023-09-07T01:56:49;101883.91;;;17.05;89.66
57234;BME280;43090;52.604;13.318;2023-09-07T01:59:15;101884.28;;;17.11;89.54
57234;BME280;43090;52.604;13.318;2023-09-07T02:01:42;101880.72;;;16.99;90.18
57234;BME280;43090;52.604;13.318;2023-09-07T02:04:08;101880.84;;;17.09;89.47
57234;BME280;43090;52.604;13.318;2023-09-07T02:06:35;101893.72;;;17.17;89.26
57234;BME280;43090;52.604;13.318;2023-09-07T02:09:01;101874.06;;;17.15;89.17
57234;BME280;43090;52.604;13.318;2023-09-07T02:11:30;101880.59;;;17.12;89.35
57234;BME280;43090;52.604;13.318;2023-09-07T02:13:57;101879.59;;;17.02;89.47
57234;BME280;43090;52.604;13.318;2023-09-07T02:16:23;101887.09;;;17.10;89.54
57234;BME280;43090;52.604;13.318;2023-09-07T02:18:50;101877.88;;;17.12;88.43
57234;BME280;43090;52.604;13.318;2023-09-07T02:21:17;101892.53;;;17.10;89.35
57234;BME280;43090;52.604;13.318;2023-09-07T02:23:43;101877.50;;;16.83;90.56
57234;BME280;43090;52.604;13.318;2023-09-07T02:26:10;101872.56;;;16.77;89.94
57234;BME280;43090;52.604;13.318;2023-09-07T02:28:36;101882.69;;;16.97;89.72
57234;BME280;43090;52.604;13.318;2023-09-07T02:46:42;101880.66;;;15.83;98.55
57234;BME280;43090;52.604;13.318;2023-09-07T02:49:08;101892.19;;;16.09;97.22
57234;BME280;43090;52.604;13.318;2023-09-07T02:51:35;101888.59;;;16.33;95.16
57234;BME280;43090;52.604;13.318;2023-09-07T02:54:02;101885.53;;;16.38;94.42
57234;BME280;43090;52.604;13.318;2023-09-07T02:56:30;101886.03;;;16.43;93.75
57234;BME280;43090;52.604;13.318;2023-09-07T02:58:57;101884.72;;;16.48;92.77
57234;BME280;43090;52.604;13.318;2023-09-07T03:01:23;101897.00;;;16.64;92.53
57234;BME280;43090;52.604;13.318;2023-09-07T03:03:50;101885.09;;;16.66;91.90
57234;BME280;43090;52.604;13.318;2023-09-07T03:06:16;101884.34;;;16.53;92.71
57234;BME280;43090;52.604;13.318;2023-09-07T03:08:43;101888.66;;;16.56;92.26
57234;BME280;43090;52.604;13.318;2023-09-07T03:11:10;101880.50;;;16.44;92.46
57234;BME280;43090;52.604;13.318;2023-09-07T03:13:38;101885.31;;;16.52;91.55
57234;BME280;43090;52.604;13.318;2023-09-07T03:16:05;101893.31;;;16.65;91.18
57234;BME280;43090;52.604;13.318;2023-09-07T03:18:32;101880.66;;;16.65;90.68
57234;BME280;43090;52.604;13.318;2023-09-07T03:21:01;101893.56;;;16.62;91.09
57234;BME280;43090;52.604;13.318;2023-09-07T03:23:28;101888.28;;;16.72;90.18
57234;BME280;43090;52.604;13.318;2023-09-07T03:25:55;101886.19;;;16.64;89.99
57234;BME280;43090;52.604;13.318;2023-09-07T03:28:22;101884.00;;;16.69;89.69
57234;BME280;43090;52.604;13.318;2023-09-07T03:30:48;101883.09;;;16.57;90.43
57234;BME280;43090;52.604;13.318;2023-09-07T03:33:15;101885.31;;;16.52;90.40
57234;BME280;43090;52.604;13.318;2023-09-07T03:35:41;101886.31;;;16.62;90.30
57234;BME280;43090;52.604;13.318;2023-09-07T03:38:08;101882.25;;;16.68;89.84
57234;BME280;43090;52.604;13.318;2023-09-07T03:40:34;101890.97;;;16.49;89.80
57234;BME280;43090;52.604;13.318;2023-09-07T03:43:01;101874.50;;;16.41;90.59
57234;BME280;43090;52.604;13.318;2023-09-07T03:45:27;101888.13;;;16.51;90.07
57234;BME280;43090;52.604;13.318;2023-09-07T03:47:54;101894.88;;;16.45;91.32
57234;BME280;43090;52.604;13.318;2023-09-07T03:50:20;101892.44;;;16.53;90.16
57234;BME280;43090;52.604;13.318;2023-09-07T03:52:47;101899.34;;;16.57;89.82
57234;BME280;43090;52.604;13.318;2023-09-07T03:55:14;101897.09;;;16.40;90.83
57234;BME280;43090;52.604;13.318;2023-09-07T03:57:40;101886.41;;;16.38;90.25
57234;BME280;43090;52.604;13.318;2023-09-07T04:00:08;101881.38;;;16.45;89.57
57234;BME280;43090;52.604;13.318;2023-09-07T04:02:35;101897.22;;;16.49;89.48
57234;BME280;43090;52.604;13.318;2023-09-07T04:05:01;101905.13;;;16.53;89.36
57234;BME280;43090;52.604;13.318;2023-09-07T04:07:31;101896.94;;;16.30;89.61
57234;BME280;43090;52.604;13.318;2023-09-07T04:09:58;101898.63;;;16.20;91.19
57234;BME280;43090;52.604;13.318;2023-09-07T04:12:25;101902.84;;;16.35;90.12
57234;BME280;43090;52.604;13.318;2023-09-07T04:14:52;101908.84;;;16.27;90.84
57234;BME280;43090;52.604;13.318;2023-09-07T04:17:19;101906.28;;;16.37;90.12
57234;BME280;43090;52.604;13.318;2023-09-07T04:19:46;101903.09;;;16.32;89.86
57234;BME280;43090;52.604;13.318;2023-09-07T04:22:12;101904.94;;;16.43;89.50
57234;BME280;43090;52.604;13.318;2023-09-07T04:24:39;101906.66;;;16.32;89.63
57234;BME280;43090;52.604;13.318;2023-09-07T04:27:06;101915.53;;;16.46;89.43
57234;BME280;43090;52.604;13.318;2023-09-07T04:29:32;101902.97;;;16.33;89.24
57234;BME280;43090;52.604;13.318;2023-09-07T04:31:59;101901.34;;;16.31;89.30
57234;BME280;43090;52.604;13.318;2023-09-07T04:34:25;101903.72;;;16.36;88.97
57234;BME280;43090;52.604;13.318;2023-09-07T04:36:52;101916.97;;;16.39;88.73
57234;BME280;43090;52.604;13.318;2023-09-07T04:39:19;101918.44;;;16.31;88.84
57234;BME280;43090;52.604;13.318;2023-09-07T04:41:45;101915.41;;;16.47;88.50
57234;BME280;43090;52.604;13.318;2023-09-07T04:44:14;101914.22;;;16.16;89.54
57234;BME280;43090;52.604;13.318;2023-09-07T04:46:44;101897.84;;;16.06;90.14
57234;BME280;43090;52.604;13.318;2023-09-07T04:49:11;101921.28;;;16.30;89.98
57234;BME280;43090;52.604;13.318;2023-09-07T04:51:37;101883.47;;;16.06;90.48
57234;BME280;43090;52.604;13.318;2023-09-07T04:54:04;101924.81;;;16.30;90.20
57234;BME280;43090;52.604;13.318;2023-09-07T04:56:30;101917.34;;;16.34;90.64
57234;BME280;43090;52.604;13.318;2023-09-07T04:58:57;101909.38;;;16.08;91.31
57234;BME280;43090;52.604;13.318;2023-09-07T05:01:24;101920.91;;;16.35;91.04
57234;BME280;43090;52.604;13.318;2023-09-07T05:03:53;101925.97;;;16.39;91.09
57234;BME280;43090;52.604;13.318;2023-09-07T05:06:21;101925.34;;;16.36;91.39
57234;BME280;43090;52.604;13.318;2023-09-07T05:08:49;101921.28;;;16.41;90.97
57234;BME280;43090;52.604;13.318;2023-09-07T05:11:16;101936.56;;;16.54;90.54
57234;BME280;43090;52.604;13.318;2023-09-07T05:13:42;101934.22;;;16.49;90.57
57234;BME280;43090;52.604;13.318;2023-09-07T05:16:09;101922.88;;;16.32;90.62
57234;BME280;43090;52.604;13.318;2023-09-07T05:18:36;101922.75;;;16.34;91.56
57234;BME280;43090;52.604;13.318;2023-09-07T05:21:15;101931.25;;;16.41;90.99
57234;BME280;43090;52.604;13.318;2023-09-07T05:23:42;101923.75;;;16.44;90.42
57234;BME280;43090;52.604;13.318;2023-09-07T05:26:09;101930.16;;;16.55;90.32
57234;BME280;43090;52.604;13.318;2023-09-07T05:28:36;101913.09;;;16.54;90.50
57234;BME280;43090;52.604;13.318;2023-09-07T05:31:02;101915.22;;;16.62;89.57
57234;BME280;43090;52.604;13.318;2023-09-07T05:33:29;101939.91;;;16.80;89.42
57234;BME280;43090;52.604;13.318;2023-09-07T05:35:55;101938.06;;;16.58;91.13
57234;BME280;43090;52.604;13.318;2023-09-07T05:38:22;101922.81;;;16.57;91.71
57234;BME280;43090;52.604;13.318;2023-09-07T05:40:48;101933.28;;;16.73;91.55
57234;BME280;43090;52.604;13.318;2023-09-07T05:43:20;101931.44;;;16.73;91.29
57234;BME280;43090;52.604;13.318;2023-09-07T05:45:47;101938.44;;;16.76;91.62
57234;BME280;43090;52.604;13.318;2023-09-07T05:48:14;101936.22;;;16.58;93.16
57234;BME280;43090;52.604;13.318;2023-09-07T05:50:44;101939.84;;;16.81;92.12
57234;BME280;43090;52.604;13.318;2023-09-07T05:53:11;101933.41;;;16.82;92.11
57234;BME280;43090;52.604;13.318;2023-09-07T05:55:37;101939.31;;;16.88;92.35
57234;BME280;43090;52.604;13.318;2023-09-07T05:58:10;101943.53;;;16.92;92.07
57234;BME280;43090;52.604;13.318;2023-09-07T06:00:37;101935.88;;;16.74;93.56
57234;BME280;43090;52.604;13.318;2023-09-07T06:03:08;101941.66;;;16.81;93.42
57234;BME280;43090;52.604;13.318;2023-09-07T06:05:36;101945.28;;;16.93;93.11
57234;BME280;43090;52.604;13.318;2023-09-07T06:08:03;101940.63;;;16.95;93.22
57234;BME280;43090;52.604;13.318;2023-09-07T06:10:30;101944.91;;;17.09;92.75
57234;BME280;43090;52.604;13.318;2023-09-07T06:12:57;101940.00;;;17.14;92.58
57234;BME280;43090;52.604;13.318;2023-09-07T06:15:26;101939.25;;;17.23;91.63
57234;BME280;43090;52.604;13.318;2023-09-07T06:18:04;101921.78;;;17.05;92.40
57234;BME280;43090;52.604;13.318;2023-09-07T06:20:36;101952.78;;;17.35;91.83
57234;BME280;43090;52.604;13.318;2023-09-07T06:23:02;101936.06;;;17.29;91.83
57234;BME280;43090;52.604;13.318;2023-09-07T06:25:29;101943.19;;;17.42;91.82
57234;BME280;43090;52.604;13.318;2023-09-07T06:27:56;101953.53;;;17.48;92.49
57234;BME280;43090;52.604;13.318;2023-09-07T06:30:22;101954.94;;;17.63;91.70
57234;BME280;43090;52.604;13.318;2023-09-07T06:32:49;101943.03;;;17.43;92.75
57234;BME280;43090;52.604;13.318;2023-09-07T06:35:17;101945.75;;;17.55;92.65
57234;BME280;43090;52.604;13.318;2023-09-07T06:37:45;101942.78;;;17.69;91.87
57234;BME280;43090;52.604;13.318;2023-09-07T06:40:11;101948.03;;;17.82;92.10
57234;BME280;43090;52.604;13.318;2023-09-07T06:42:39;101948.50;;;17.87;91.78
57234;BME280;43090;52.604;13.318;2023-09-07T06:45:06;101953.56;;;17.80;92.29
57234;BME280;43090;52.604;13.318;2023-09-07T06:47:33;101947.91;;;17.95;90.94
57234;BME280;43090;52.604;13.318;2023-09-07T06:50:01;101943.91;;;18.10;90.47
57234;BME280;43090;52.604;13.318;2023-09-07T06:52:27;101943.88;;;18.22;89.40
57234;BME280;43090;52.604;13.318;2023-09-07T06:54:54;101956.97;;;18.38;89.33
57234;BME280;43090;52.604;13.318;2023-09-07T06:57:20;101964.34;;;18.47;88.33
57234;BME280;43090;52.604;13.318;2023-09-07T06:59:47;101954.34;;;18.47;88.57
57234;BME280;43090;52.604;13.318;2023-09-07T07:02:14;101960.00;;;18.23;90.84
57234;BME280;43090;52.604;13.318;2023-09-07T07:04:41;101962.59;;;18.46;91.98
57234;BME280;43090;52.604;13.318;2023-09-07T07:07:08;101959.31;;;18.63;91.03
57234;BME280;43090;52.604;13.318;2023-09-07T07:09:34;101955.59;;;18.64;91.22
57234;BME280;43090;52.604;13.318;2023-09-07T07:12:01;101958.44;;;18.84;90.02
57234;BME280;43090;52.604;13.318;2023-09-07T07:14:27;101960.09;;;18.75;91.12
57234;BME280;43090;52.604;13.318;2023-09-07T07:16:54;101963.53;;;18.77;91.04
57234;BME280;43090;52.604;13.318;2023-09-07T07:19:21;101962.06;;;18.94;90.85
57234;BME280;43090;52.604;13.318;2023-09-07T07:21:48;101958.69;;;18.81;92.59
57234;BME280;43090;52.604;13.318;2023-09-07T07:24:14;101956.31;;;18.67;95.91
57234;BME280;43090;52.604;13.318;2023-09-07T07:26:41;101959.44;;;18.83;94.29
57234;BME280;43090;52.604;13.318;2023-09-07T07:29:07;101963.88;;;19.05;90.50
57234;BME280;43090;52.604;13.318;2023-09-07T07:31:34;101958.84;;;19.01;91.21
57234;BME280;43090;52.604;13.318;2023-09-07T07:34:00;101963.97;;;19.04;91.21
57234;BME280;43090;52.604;13.318;2023-09-07T07:36:27;101961.97;;;19.27;89.62
57234;BME280;43090;52.604;13.318;2023-09-07T07:38:53;101969.63;;;19.53;88.44
57234;BME280;43090;52.604;13.318;2023-09-07T07:41:21;101962.94;;;19.57;87.61
57234;BME280;43090;52.604;13.318;2023-09-07T07:43:47;101974.34;;;19.51;89.78
57234;BME280;43090;52.604;13.318;2023-09-07T07:46:14;101959.78;;;19.61;89.70
57234;BME280;43090;52.604;13.318;2023-09-07T07:48:45;101959.59;;;19.84;87.45
57234;BME280;43090;52.604;13.318;2023-09-07T07:51:11;101961.63;;;20.02;82.96
57234;BME280;43090;52.604;13.318;2023-09-07T07:53:38;101967.91;;;20.12;82.25
57234;BME280;43090;52.604;13.318;2023-09-07T07:56:04;101973.34;;;20.02;84.12
57234;BME280;43090;52.604;13.318;2023-09-07T07:58:31;101964.09;;;19.74;88.73
57234;BME280;43090;52.604;13.318;2023-09-07T08:00:57;101953.72;;;19.98;84.94
57234;BME280;43090;52.604;13.318;2023-09-07T08:03:25;101969.63;;;20.13;85.21
57234;BME280;43090;52.604;13.318;2023-09-07T08:05:52;101978.66;;;20.33;83.69
57234;BME280;43090;52.604;13.318;2023-09-07T08:08:18;101965.06;;;20.33;80.87
57234;BME280;43090;52.604;13.318;2023-09-07T08:10:45;101971.63;;;20.60;82.42
57234;BME280;43090;52.604;13.318;2023-09-07T08:13:12;101975.78;;;20.54;82.47
57234;BME280;43090;52.604;13.318;2023-09-07T08:15:40;101968.50;;;20.55;84.29
57234;BME280;43090;52.604;13.318;2023-09-07T08:18:06;101968.72;;;21.28;75.53
57234;BME280;43090;52.604;13.318;2023-09-07T08:20:35;101961.00;;;21.61;71.17
57234;BME280;43090;52.604;13.318;2023-09-07T08:23:03;101956.19;;;21.55;75.51
57234;BME280;43090;52.604;13.318;2023-09-07T08:25:33;101955.59;;;21.24;79.58
57234;BME280;43090;52.604;13.318;2023-09-07T08:28:00;101962.69;;;21.35;77.07
57234;BME280;43090;52.604;13.318;2023-09-07T08:30:33;101959.94;;;21.07;77.62
57234;BME280;43090;52.604;13.318;2023-09-07T08:33:00;101954.16;;;21.57;70.94
57234;BME280;43090;52.604;13.318;2023-09-07T08:35:29;101961.13;;;21.88;67.24
57234;BME280;43090;52.604;13.318;2023-09-07T08:37:57;101961.88;;;21.62;72.52
57234;BME280;43090;52.604;13.318;2023-09-07T08:40:26;101949.75;;;21.74;73.25
57234;BME280;43090;52.604;13.318;2023-09-07T08:42:54;101953.19;;;21.76;72.23
57234;BME280;43090;52.604;13.318;2023-09-07T08:45:25;101936.34;;;21.53;73.32
57234;BME280;43090;52.604;13.318;2023-09-07T08:47:58;101958.41;;;21.70;76.32
57234;BME280;43090;52.604;13.318;2023-09-07T08:50:25;101961.22;;;21.78;70.98
57234;BME280;43090;52.604;13.318;2023-09-07T08:52:52;101965.78;;;21.77;71.17
57234;BME280;43090;52.604;13.318;2023-09-07T08:55:19;101958.97;;;22.09;69.68
57234;BME280;43090;52.604;13.318;2023-09-07T08:57:46;101963.34;;;22.20;72.08
57234;BME280;43090;52.604;13.318;2023-09-07T09:00:13;101969.72;;;22.11;71.23
57234;BME280;43090;52.604;13.318;2023-09-07T09:02:46;101970.50;;;22.03;75.42
57234;BME280;43090;52.604;13.318;2023-09-07T09:05:23;101954.66;;;22.25;72.54
57234;BME280;43090;52.604;13.318;2023-09-07T09:08:00;101966.91;;;22.57;65.60
57234;BME280;43090;52.604;13.318;2023-09-07T09:10:27;101958.25;;;22.61;66.59
57234;BME280;43090;52.604;13.318;2023-09-07T09:12:56;101965.06;;;22.57;66.04
57234;BME280;43090;52.604;13.318;2023-09-07T09:15:27;101958.09;;;22.45;68.60
57234;BME280;43090;52.604;13.318;2023-09-07T09:17:54;101930.63;;;22.65;67.24
57234;BME280;43090;52.604;13.318;2023-09-07T09:20:23;101954.44;;;22.80;63.83
57234;BME280;43090;52.604;13.318;2023-09-07T09:22:53;101946.38;;;22.71;59.30
57234;BME280;43090;52.604;13.318;2023-09-07T09:25:21;101952.69;;;22.98;60.04
57234;BME280;43090;52.604;13.318;2023-09-07T09:27:48;101952.25;;;22.84;60.72
57234;BME280;43090;52.604;13.318;2023-09-07T09:30:14;101964.38;;;22.82;64.41
57234;BME280;43090;52.604;13.318;2023-09-07T09:32:43;101951.88;;;23.05;55.50
57234;BME280;43090;52.604;13.318;2023-09-07T09:35:09;101944.53;;;23.06;62.46
57234;BME280;43090;52.604;13.318;2023-09-07T09:37:44;101949.41;;;23.20;63.08
57234;BME280;43090;52.604;13.318;2023-09-07T09:40:18;101956.47;;;23.31;58.20
57234;BME280;43090;52.604;13.318;2023-09-07T09:42:45;101946.19;;;23.17;59.81
57234;BME280;43090;52.604;13.318;2023-09-07T09:45:19;101932.38;;;23.26;64.00
57234;BME280;43090;52.604;13.318;2023-09-07T09:47:47;101937.09;;;23.16;54.08
57234;BME280;43090;52.604;13.318;2023-09-07T09:50:17;101943.38;;;23.43;56.27
57234;BME280;43090;52.604;13.318;2023-09-07T09:52:48;101928.25;;;23.73;54.93
57234;BME280;43090;52.604;13.318;2023-09-07T09:55:15;101928.06;;;23.67;54.77
57234;BME280;43090;52.604;13.318;2023-09-07T09:57:41;101930.78;;;23.58;58.75
57234;BME280;43090;52.604;13.318;2023-09-07T10:00:08;101936.22;;;23.50;61.63
57234;BME280;43090;52.604;13.318;2023-09-07T10:02:46;101933.88;;;23.72;57.00
57234;BME280;43090;52.604;13.318;2023-09-07T10:05:15;101931.50;;;23.77;56.58
57234;BME280;43090;52.604;13.318;2023-09-07T10:07:48;101931.69;;;23.84;58.64
57234;BME280;43090;52.604;13.318;2023-09-07T10:10:22;101907.25;;;23.82;56.86
57234;BME280;43090;52.604;13.318;2023-09-07T10:12:53;101895.97;;;23.85;56.83
57234;BME280;43090;52.604;13.318;2023-09-07T10:15:24;101911.91;;;23.90;57.64
57234;BME280;43090;52.604;13.318;2023-09-07T10:18:13;101930.22;;;24.06;56.68
57234;BME280;43090;52.604;13.318;2023-09-07T10:20:55;101905.25;;;24.01;51.25
57234;BME280;43090;52.604;13.318;2023-09-07T10:23:23;101925.09;;;24.19;52.73
57234;BME280;43090;52.604;13.318;2023-09-07T10:26:03;101897.75;;;24.19;55.93
57234;BME280;43090;52.604;13.318;2023-09-07T10:28:33;101922.19;;;24.12;54.55
57234;BME280;43090;52.604;13.318;2023-09-07T10:31:18;101927.16;;;24.42;56.23
57234;BME280;43090;52.604;13.318;2023-09-07T10:33:46;101929.19;;;24.48;48.28
57234;BME280;43090;52.604;13.318;2023-09-07T10:36:21;101921.00;;;24.65;52.81
57234;BME280;43090;52.604;13.318;2023-09-07T10:38:49;101925.56;;;24.89;51.74
57234;BME280;43090;52.604;13.318;2023-09-07T10:41:16;101926.47;;;24.65;51.66
57234;BME280;43090;52.604;13.318;2023-09-07T10:43:48;101928.34;;;24.56;58.00
57234;BME280;43090;52.604;13.318;2023-09-07T10:46:22;101917.91;;;24.76;52.65
57234;BME280;43090;52.604;13.318;2023-09-07T10:48:53;101924.41;;;24.67;52.80
57234;BME280;43090;52.604;13.318;2023-09-07T10:51:20;101916.16;;;24.91;49.32
57234;BME280;43090;52.604;13.318;2023-09-07T10:53:47;101915.13;;;24.84;49.48
57234;BME280;43090;52.604;13.318;2023-09-07T10:56:14;101911.63;;;25.07;50.08
57234;BME280;43090;52.604;13.318;2023-09-07T10:58:42;101912.66;;;25.14;51.64
57234;BME280;43090;52.604;13.318;2023-09-07T11:01:10;101913.88;;;25.03;50.24
57234;BME280;43090;52.604;13.318;2023-09-07T11:03:43;101905.16;;;25.00;50.25
57234;BME280;43090;52.604;13.318;2023-09-07T11:06:15;101884.00;;;24.77;50.88
57234;BME280;43090;52.604;13.318;2023-09-07T11:08:43;101900.88;;;24.97;46.41
57234;BME280;43090;52.604;13.318;2023-09-07T11:11:10;101910.19;;;25.27;49.46
57234;BME280;43090;52.604;13.318;2023-09-07T11:13:37;101870.75;;;24.97;51.67
57234;BME280;43090;52.604;13.318;2023-09-07T11:16:07;101881.34;;;25.08;50.86
57234;BME280;43090;52.604;13.318;2023-09-07T11:18:35;101877.66;;;25.24;49.64
57234;BME280;43090;52.604;13.318;2023-09-07T11:21:02;101901.91;;;25.44;48.23
57234;BME280;43090;52.604;13.318;2023-09-07T11:23:33;101886.66;;;25.50;46.11
57234;BME280;43090;52.604;13.318;2023-09-07T11:26:07;101891.16;;;25.66;50.38
57234;BME280;43090;52.604;13.318;2023-09-07T11:28:37;101876.97;;;25.22;48.34
57234;BME280;43090;52.604;13.318;2023-09-07T11:31:08;101857.06;;;25.37;50.20
57234;BME280;43090;52.604;13.318;2023-09-07T11:33:35;101862.97;;;25.17;49.60
57234;BME280;43090;52.604;13.318;2023-09-07T11:36:08;101864.25;;;25.38;49.30
57234;BME280;43090;52.604;13.318;2023-09-07T11:38:36;101873.75;;;25.82;44.43
57234;BME280;43090;52.604;13.318;2023-09-07T11:41:04;101851.59;;;25.37;47.17
57234;BME280;43090;52.604;13.318;2023-09-07T11:43:47;101848.22;;;25.18;47.94
57234;BME280;43090;52.604;13.318;2023-09-07T11:46:16;101868.03;;;25.60;46.62
57234;BME280;43090;52.604;13.318;2023-09-07T11:49:03;101884.91;;;26.03;44.72
57234;BME280;43090;52.604;13.318;2023-09-07T11:51:35;101873.38;;;25.61;48.49
57234;BME280;43090;52.604;13.318;2023-09-07T11:54:03;101882.16;;;25.80;47.97
57234;BME280;43090;52.604;13.318;2023-09-07T11:56:31;101848.47;;;25.40;48.15
57234;BME280;43090;52.604;13.318;2023-09-07T11:58:58;101869.34;;;25.72;45.50
57234;BME280;43090;52.604;13.318;2023-09-07T12:12:12;101871.84;;;25.82;49.02
57234;BME280;43090;52.604;13.318;2023-09-07T12:14:39;101869.63;;;26.01;43.88
57234;BME280;43090;52.604;13.318;2023-09-07T12:17:09;101852.81;;;25.81;45.55
57234;BME280;43090;52.604;13.318;2023-09-07T12:19:39;101868.00;;;25.91;46.57
57234;BME280;43090;52.604;13.318;2023-09-07T12:22:08;101872.22;;;25.79;45.53
57234;BME280;43090;52.604;13.318;2023-09-07T12:24:34;101871.00;;;26.05;44.92
57234;BME280;43090;52.604;13.318;2023-09-07T12:27:08;101848.69;;;25.85;47.38
57234;BME280;43090;52.604;13.318;2023-09-07T12:29:35;101874.66;;;26.20;43.88
57234;BME280;43090;52.604;13.318;2023-09-07T12:32:02;101863.53;;;25.90;44.15
57234;BME280;43090;52.604;13.318;2023-09-07T12:34:28;101871.44;;;25.93;44.16
57234;BME280;43090;52.604;13.318;2023-09-07T12:36:58;101840.09;;;26.26;45.13
57234;BME280;43090;52.604;13.318;2023-09-07T12:39:27;101852.03;;;26.18;45.37
57234;BME280;43090;52.604;13.318;2023-09-07T12:41:53;101839.22;;;25.87;43.98
57234;BME280;43090;52.604;13.318;2023-09-07T12:44:20;101858.06;;;26.14;42.06
57234;BME280;43090;52.604;13.318;2023-09-07T12:46:47;101848.53;;;26.24;43.33
57234;BME280;43090;52.604;13.318;2023-09-07T12:49:14;101825.34;;;26.27;43.52
57234;BME280;43090;52.604;13.318;2023-09-07T12:51:42;101825.63;;;26.17;43.55
57234;BME280;43090;52.604;13.318;2023-09-07T12:54:09;101826.03;;;26.44;42.90
57234;BME280;43090;52.604;13.318;2023-09-07T12:56:37;101821.94;;;26.70;43.04
57234;BME280;43090;52.604;13.318;2023-09-07T12:59:04;101828.97;;;26.42;48.69
57234;BME280;43090;52.604;13.318;2023-09-07T13:01:44;101837.69;;;26.46;48.70
57234;BME280;43090;52.604;13.318;2023-09-07T13:04:11;101823.56;;;26.49;44.03
57234;BME280;43090;52.604;13.318;2023-09-07T13:06:40;101821.66;;;26.35;43.03
57234;BME280;43090;52.604;13.318;2023-09-07T13:09:20;101806.63;;;26.31;43.64
57234;BME280;43090;52.604;13.318;2023-09-07T13:12:14;101804.31;;;26.19;43.46